sensor_id;sensor_type;location;lat;lon;timestamp;temperature;humidity
37456;DHT22;23316;50.718;7.328;2023-06-10T00:02:21;23.30;43.10
37456;DHT22;23316;50.718;7.328;2023-06-10T00:04:48;23.30;43.20
37456;DHT22;23316;50.718;7.328;2023-06-10T00:07:15;23.30;43.20
37456;DHT22;23316;50.718;7.328;2023-06-10T00:09:43;23.20;43.10
37456;DHT22;23316;50.718;7.328;2023-06-10T00:12:10;23.20;43.20
37456;DHT22;23316;50.718;7.328;2023-06-10T00:14:39;23.20;43.30
37456;DHT22;23316;50.718;7.328;2023-06-10T00:17:07;23.20;43.30
37456;DHT22;23316;50.718;7.328;2023-06-10T00:19:36;23.10;43.30
37456;DHT22;23316;50.718;7.328;2023-06-10T00:22:07;23.10;43.30
37456;DHT22;23316;50.718;7.328;2023-06-10T00:24:35;23.10;43.40
37456;DHT22;23316;50.718;7.328;2023-06-10T00:27:02;23.10;43.40
37456;DHT22;23316;50.718;7.328;2023-06-10T00:29:29;23.00;43.50
37456;DHT22;23316;50.718;7.328;2023-06-10T00:31:58;23.00;43.50
37456;DHT22;23316;50.718;7.328;2023-06-10T00:34:25;23.00;43.60
37456;DHT22;23316;50.718;7.328;2023-06-10T00:36:52;23.00;43.60
37456;DHT22;23316;50.718;7.328;2023-06-10T00:39:19;23.00;43.80
37456;DHT22;23316;50.718;7.328;2023-06-10T00:41:47;22.90;44.00
37456;DHT22;23316;50.718;7.328;2023-06-10T00:44:14;22.90;44.00
37456;DHT22;23316;50.718;7.328;2023-06-10T00:46:41;22.90;44.00
37456;DHT22;23316;50.718;7.328;2023-06-10T00:49:11;22.90;44.20
37456;DHT22;23316;50.718;7.328;2023-06-10T00:51:38;22.80;44.10
37456;DHT22;23316;50.718;7.328;2023-06-10T00:54:07;22.80;44.10
37456;DHT22;23316;50.718;7.328;2023-06-10T00:56:35;22.80;44.10
37456;DHT22;23316;50.718;7.328;2023-06-10T00:59:03;22.80;44.10
37456;DHT22;23316;50.718;7.328;2023-06-10T01:01:30;22.80;44.10
37456;DHT22;23316;50.718;7.328;2023-06-10T01:03:58;22.80;44.10
37456;DHT22;23316;50.718;7.328;2023-06-10T01:06:34;22.70;44.10
37456;DHT22;23316;50.718;7.328;2023-06-10T01:09:18;22.70;44.20
37456;DHT22;23316;50.718;7.328;2023-06-10T01:11:54;22.60;44.10
37456;DHT22;23316;50.718;7.328;2023-06-10T01:14:23;22.60;44.20
37456;DHT22;23316;50.718;7.328;2023-06-10T01:16:51;22.60;44.30
37456;DHT22;23316;50.718;7.328;2023-06-10T01:19:19;22.60;44.40
37456;DHT22;23316;50.718;7.328;2023-06-10T01:21:51;22.60;44.50
37456;DHT22;23316;50.718;7.328;2023-06-10T01:24:21;22.50;44.50
37456;DHT22;23316;50.718;7.328;2023-06-10T01:26:50;22.50;44.60
37456;DHT22;23316;50.718;7.328;2023-06-10T01:29:20;22.50;44.70
37456;DHT22;23316;50.718;7.328;2023-06-10T01:31:59;22.50;44.70
37456;DHT22;23316;50.718;7.328;2023-06-10T01:34:28;22.50;44.90
37456;DHT22;23316;50.718;7.328;2023-06-10T01:36:58;22.40;44.80
37456;DHT22;23316;50.718;7.328;2023-06-10T01:39:26;22.50;44.90
37456;DHT22;23316;50.718;7.328;2023-06-10T01:41:54;22.40;44.80
37456;DHT22;23316;50.718;7.328;2023-06-10T01:44:23;22.40;44.80
37456;DHT22;23316;50.718;7.328;2023-06-10T01:46:50;22.40;44.80
37456;DHT22;23316;50.718;7.328;2023-06-10T01:49:17;22.40;44.90
37456;DHT22;23316;50.718;7.328;2023-06-10T01:51:45;22.40;45.00
37456;DHT22;23316;50.718;7.328;2023-06-10T01:54:13;22.30;44.90
37456;DHT22;23316;50.718;7.328;2023-06-10T01:56:40;22.30;45.00
37456;DHT22;23316;50.718;7.328;2023-06-10T01:59:08;22.30;45.00
37456;DHT22;23316;50.718;7.328;2023-06-10T02:01:35;22.20;44.90
37456;DHT22;23316;50.718;7.328;2023-06-10T02:04:02;22.20;45.00
37456;DHT22;23316;50.718;7.328;2023-06-10T02:06:29;22.20;45.10
37456;DHT22;23316;50.718;7.328;2023-06-10T02:08:57;22.20;45.10
37456;DHT22;23316;50.718;7.328;2023-06-10T02:11:25;22.10;45.10
37456;DHT22;23316;50.718;7.328;2023-06-10T02:13:53;22.10;45.10
37456;DHT22;23316;50.718;7.328;2023-06-10T02:16:20;22.10;45.10
37456;DHT22;23316;50.718;7.328;2023-06-10T02:18:48;22.10;45.10
37456;DHT22;23316;50.718;7.328;2023-06-10T02:21:15;22.00;45.10
37456;DHT22;23316;50.718;7.328;2023-06-10T02:23:42;22.00;45.20
37456;DHT22;23316;50.718;7.328;2023-06-10T02:26:09;22.00;45.20
37456;DHT22;23316;50.718;7.328;2023-06-10T02:28:38;21.90;45.30
37456;DHT22;23316;50.718;7.328;2023-06-10T02:31:09;21.90;45.30
37456;DHT22;23316;50.718;7.328;2023-06-10T02:33:36;21.90;45.30
37456;DHT22;23316;50.718;7.328;2023-06-10T02:36:06;21.90;45.50
37456;DHT22;23316;50.718;7.328;2023-06-10T02:38:33;21.90;45.40
37456;DHT22;23316;50.718;7.328;2023-06-10T02:41:00;21.80;45.40
37456;DHT22;23316;50.718;7.328;2023-06-10T02:43:28;21.80;45.40
37456;DHT22;23316;50.718;7.328;2023-06-10T02:45:57;21.80;45.40
37456;DHT22;23316;50.718;7.328;2023-06-10T02:48:24;21.80;45.50
37456;DHT22;23316;50.718;7.328;2023-06-10T02:50:51;21.80;45.50
37456;DHT22;23316;50.718;7.328;2023-06-10T02:53:18;21.80;45.50
37456;DHT22;23316;50.718;7.328;2023-06-10T02:55:46;21.70;45.40
37456;DHT22;23316;50.718;7.328;2023-06-10T02:58:13;21.70;45.40
37456;DHT22;23316;50.718;7.328;2023-06-10T03:00:41;21.70;45.40
37456;DHT22;23316;50.718;7.328;2023-06-10T03:03:10;21.70;45.40
37456;DHT22;23316;50.718;7.328;2023-06-10T03:05:38;21.70;45.50
37456;DHT22;23316;50.718;7.328;2023-06-10T03:08:06;21.60;45.50
37456;DHT22;23316;50.718;7.328;2023-06-10T03:10:33;21.60;45.70
37456;DHT22;23316;50.718;7.328;2023-06-10T03:13:00;21.60;45.70
37456;DHT22;23316;50.718;7.328;2023-06-10T03:15:28;21.60;45.70
37456;DHT22;23316;50.718;7.328;2023-06-10T03:17:59;21.60;45.70
37456;DHT22;23316;50.718;7.328;2023-06-10T03:20:28;21.60;45.70
37456;DHT22;23316;50.718;7.328;2023-06-10T03:22:55;21.50;45.60
37456;DHT22;23316;50.718;7.328;2023-06-10T03:25:23;21.60;45.70
37456;DHT22;23316;50.718;7.328;2023-06-10T03:27:52;21.50;45.60
37456;DHT22;23316;50.718;7.328;2023-06-10T03:30:19;21.50;45.60
37456;DHT22;23316;50.718;7.328;2023-06-10T03:32:46;21.50;45.70
37456;DHT22;23316;50.718;7.328;2023-06-10T03:35:14;21.40;45.70
37456;DHT22;23316;50.718;7.328;2023-06-10T03:37:43;21.40;45.80
37456;DHT22;23316;50.718;7.328;2023-06-10T03:40:10;21.40;45.90
37456;DHT22;23316;50.718;7.328;2023-06-10T03:42:37;21.40;45.90
37456;DHT22;23316;50.718;7.328;2023-06-10T03:45:05;21.40;45.90
37456;DHT22;23316;50.718;7.328;2023-06-10T03:47:33;21.40;46.00
37456;DHT22;23316;50.718;7.328;2023-06-10T03:50:01;21.40;46.00
37456;DHT22;23316;50.718;7.328;2023-06-10T03:52:29;21.30;46.00
37456;DHT22;23316;50.718;7.328;2023-06-10T03:54:58;21.30;46.10
37456;DHT22;23316;50.718;7.328;2023-06-10T03:57:25;21.40;46.30
37456;DHT22;23316;50.718;7.328;2023-06-10T03:59:52;21.30;46.30
37456;DHT22;23316;50.718;7.328;2023-06-10T04:02:19;21.30;46.40
37456;DHT22;23316;50.718;7.328;2023-06-10T04:04:47;21.30;46.50
37456;DHT22;23316;50.718;7.328;2023-06-10T04:07:14;21.30;46.60
37456;DHT22;23316;50.718;7.328;2023-06-10T04:09:41;21.30;46.60
37456;DHT22;23316;50.718;7.328;2023-06-10T04:12:10;21.30;46.70
37456;DHT22;23316;50.718;7.328;2023-06-10T04:14:37;21.30;46.80
37456;DHT22;23316;50.718;7.328;2023-06-10T04:17:05;21.20;46.80
37456;DHT22;23316;50.718;7.328;2023-06-10T04:19:33;21.20;46.80
37456;DHT22;23316;50.718;7.328;2023-06-10T04:22:00;21.20;46.80
37456;DHT22;23316;50.718;7.328;2023-06-10T04:24:28;21.20;46.90
37456;DHT22;23316;50.718;7.328;2023-06-10T04:26:55;21.20;47.10
37456;DHT22;23316;50.718;7.328;2023-06-10T04:29:24;21.20;47.20
37456;DHT22;23316;50.718;7.328;2023-06-10T04:31:51;21.20;47.20
37456;DHT22;23316;50.718;7.328;2023-06-10T04:34:18;21.20;47.30
37456;DHT22;23316;50.718;7.328;2023-06-10T04:36:46;21.20;47.40
37456;DHT22;23316;50.718;7.328;2023-06-10T04:39:13;21.20;47.40
37456;DHT22;23316;50.718;7.328;2023-06-10T04:41:42;21.20;47.40
37456;DHT22;23316;50.718;7.328;2023-06-10T04:44:10;21.20;47.40
37456;DHT22;23316;50.718;7.328;2023-06-10T04:46:39;21.20;47.40
37456;DHT22;23316;50.718;7.328;2023-06-10T04:49:06;21.20;47.40
37456;DHT22;23316;50.718;7.328;2023-06-10T04:51:33;21.20;47.40
37456;DHT22;23316;50.718;7.328;2023-06-10T04:54:01;21.20;47.50
37456;DHT22;23316;50.718;7.328;2023-06-10T04:56:29;21.20;47.50
37456;DHT22;23316;50.718;7.328;2023-06-10T04:58:57;21.20;47.60
37456;DHT22;23316;50.718;7.328;2023-06-10T05:01:24;21.20;47.50
37456;DHT22;23316;50.718;7.328;2023-06-10T05:03:53;21.20;47.50
37456;DHT22;23316;50.718;7.328;2023-06-10T05:06:20;21.20;47.60
37456;DHT22;23316;50.718;7.328;2023-06-10T05:08:48;21.20;47.70
37456;DHT22;23316;50.718;7.328;2023-06-10T05:11:15;21.20;47.80
37456;DHT22;23316;50.718;7.328;2023-06-10T05:13:42;21.30;47.90
37456;DHT22;23316;50.718;7.328;2023-06-10T05:16:10;21.30;48.00
37456;DHT22;23316;50.718;7.328;2023-06-10T05:18:37;21.30;48.10
37456;DHT22;23316;50.718;7.328;2023-06-10T05:21:06;21.30;48.10
37456;DHT22;23316;50.718;7.328;2023-06-10T05:23:33;21.30;48.20
37456;DHT22;23316;50.718;7.328;2023-06-10T05:26:00;21.30;48.20
37456;DHT22;23316;50.718;7.328;2023-06-10T05:28:28;21.40;48.30
37456;DHT22;23316;50.718;7.328;2023-06-10T05:30:55;21.40;48.30
37456;DHT22;23316;50.718;7.328;2023-06-10T05:33:22;21.40;48.40
37456;DHT22;23316;50.718;7.328;2023-06-10T05:35:50;21.40;48.40
37456;DHT22;23316;50.718;7.328;2023-06-10T05:38:18;21.40;48.60
37456;DHT22;23316;50.718;7.328;2023-06-10T05:40:46;21.50;48.60
37456;DHT22;23316;50.718;7.328;2023-06-10T05:43:13;21.50;48.60
37456;DHT22;23316;50.718;7.328;2023-06-10T05:45:42;21.50;48.80
37456;DHT22;23316;50.718;7.328;2023-06-10T05:48:09;21.50;48.60
37456;DHT22;23316;50.718;7.328;2023-06-10T05:50:37;21.60;48.60
37456;DHT22;23316;50.718;7.328;2023-06-10T05:53:06;21.60;48.60
37456;DHT22;23316;50.718;7.328;2023-06-10T05:55:42;21.60;48.40
37456;DHT22;23316;50.718;7.328;2023-06-10T05:58:09;21.60;48.40
37456;DHT22;23316;50.718;7.328;2023-06-10T06:00:38;21.60;48.20
37456;DHT22;23316;50.718;7.328;2023-06-10T06:03:07;21.70;48.20
37456;DHT22;23316;50.718;7.328;2023-06-10T06:05:34;21.70;48.40
37456;DHT22;23316;50.718;7.328;2023-06-10T06:08:03;21.80;48.50
37456;DHT22;23316;50.718;7.328;2023-06-10T06:10:30;21.80;48.60
37456;DHT22;23316;50.718;7.328;2023-06-10T06:13:00;21.90;48.70
37456;DHT22;23316;50.718;7.328;2023-06-10T06:15:27;21.90;48.80
37456;DHT22;23316;50.718;7.328;2023-06-10T06:17:54;21.90;48.70
37456;DHT22;23316;50.718;7.328;2023-06-10T06:20:22;22.00;48.40
37456;DHT22;23316;50.718;7.328;2023-06-10T06:22:50;22.00;48.20
37456;DHT22;23316;50.718;7.328;2023-06-10T06:25:18;22.00;47.70
37456;DHT22;23316;50.718;7.328;2023-06-10T06:27:45;22.10;47.90
37456;DHT22;23316;50.718;7.328;2023-06-10T06:30:14;22.20;48.00
37456;DHT22;23316;50.718;7.328;2023-06-10T06:32:41;22.20;48.30
37456;DHT22;23316;50.718;7.328;2023-06-10T06:35:08;22.30;48.30
37456;DHT22;23316;50.718;7.328;2023-06-10T06:37:36;22.30;48.30
37456;DHT22;23316;50.718;7.328;2023-06-10T06:40:04;22.30;48.30
37456;DHT22;23316;50.718;7.328;2023-06-10T06:42:31;22.40;48.20
37456;DHT22;23316;50.718;7.328;2023-06-10T06:44:59;22.40;48.20
37456;DHT22;23316;50.718;7.328;2023-06-10T06:47:27;22.50;48.30
37456;DHT22;23316;50.718;7.328;2023-06-10T06:49:54;22.60;48.30
37456;DHT22;23316;50.718;7.328;2023-06-10T06:52:22;22.60;48.30
37456;DHT22;23316;50.718;7.328;2023-06-10T06:54:49;22.60;47.90
37456;DHT22;23316;50.718;7.328;2023-06-10T06:57:16;22.70;47.90
37456;DHT22;23316;50.718;7.328;2023-06-10T06:59:43;22.80;48.10
37456;DHT22;23316;50.718;7.328;2023-06-10T07:02:11;22.80;48.30
37456;DHT22;23316;50.718;7.328;2023-06-10T07:04:39;22.90;48.30
37456;DHT22;23316;50.718;7.328;2023-06-10T07:07:07;23.00;48.40
37456;DHT22;23316;50.718;7.328;2023-06-10T07:09:35;23.00;48.30
37456;DHT22;23316;50.718;7.328;2023-06-10T07:12:03;23.10;48.10
37456;DHT22;23316;50.718;7.328;2023-06-10T07:14:31;23.10;47.90
37456;DHT22;23316;50.718;7.328;2023-06-10T07:16:58;23.20;47.80
37456;DHT22;23316;50.718;7.328;2023-06-10T07:19:26;23.30;47.80
37456;DHT22;23316;50.718;7.328;2023-06-10T07:21:54;23.30;48.10
37456;DHT22;23316;50.718;7.328;2023-06-10T07:24:21;23.40;47.90
37456;DHT22;23316;50.718;7.328;2023-06-10T07:26:49;23.50;47.90
37456;DHT22;23316;50.718;7.328;2023-06-10T07:29:16;23.50;47.90
37456;DHT22;23316;50.718;7.328;2023-06-10T07:31:43;23.60;47.90
37456;DHT22;23316;50.718;7.328;2023-06-10T07:34:10;23.70;47.50
37456;DHT22;23316;50.718;7.328;2023-06-10T07:36:38;23.70;47.40
37456;DHT22;23316;50.718;7.328;2023-06-10T07:39:06;23.80;47.40
37456;DHT22;23316;50.718;7.328;2023-06-10T07:41:33;23.80;47.50
37456;DHT22;23316;50.718;7.328;2023-06-10T07:44:01;23.90;47.20
37456;DHT22;23316;50.718;7.328;2023-06-10T07:46:28;24.00;47.30
37456;DHT22;23316;50.718;7.328;2023-06-10T07:48:55;24.00;47.10
37456;DHT22;23316;50.718;7.328;2023-06-10T07:51:23;24.10;47.00
37456;DHT22;23316;50.718;7.328;2023-06-10T07:53:50;24.10;46.70
37456;DHT22;23316;50.718;7.328;2023-06-10T07:56:18;24.20;46.70
37456;DHT22;23316;50.718;7.328;2023-06-10T07:58:47;24.20;46.70
37456;DHT22;23316;50.718;7.328;2023-06-10T08:01:14;24.30;46.70
37456;DHT22;23316;50.718;7.328;2023-06-10T08:03:42;24.40;46.60
37456;DHT22;23316;50.718;7.328;2023-06-10T08:06:09;24.40;46.70
37456;DHT22;23316;50.718;7.328;2023-06-10T08:08:37;24.40;46.80
37456;DHT22;23316;50.718;7.328;2023-06-10T08:11:07;24.50;47.00
37456;DHT22;23316;50.718;7.328;2023-06-10T08:13:36;24.60;47.00
37456;DHT22;23316;50.718;7.328;2023-06-10T08:16:04;24.70;46.60
37456;DHT22;23316;50.718;7.328;2023-06-10T08:18:31;24.70;46.40
37456;DHT22;23316;50.718;7.328;2023-06-10T08:20:58;24.80;46.10
37456;DHT22;23316;50.718;7.328;2023-06-10T08:23:26;24.80;46.20
37456;DHT22;23316;50.718;7.328;2023-06-10T08:25:53;24.90;46.20
37456;DHT22;23316;50.718;7.328;2023-06-10T08:28:20;25.00;46.20
37456;DHT22;23316;50.718;7.328;2023-06-10T08:30:49;25.00;45.80
37456;DHT22;23316;50.718;7.328;2023-06-10T08:33:16;25.10;45.30
37456;DHT22;23316;50.718;7.328;2023-06-10T08:35:43;25.20;45.90
37456;DHT22;23316;50.718;7.328;2023-06-10T08:38:11;25.20;45.70
37456;DHT22;23316;50.718;7.328;2023-06-10T08:40:38;25.30;45.30
37456;DHT22;23316;50.718;7.328;2023-06-10T08:43:06;25.40;45.30
37456;DHT22;23316;50.718;7.328;2023-06-10T08:45:36;25.40;45.10
37456;DHT22;23316;50.718;7.328;2023-06-10T08:48:05;25.50;45.10
37456;DHT22;23316;50.718;7.328;2023-06-10T08:50:34;25.60;45.20
37456;DHT22;23316;50.718;7.328;2023-06-10T08:53:04;25.60;45.10
37456;DHT22;23316;50.718;7.328;2023-06-10T08:55:33;25.70;45.00
37456;DHT22;23316;50.718;7.328;2023-06-10T08:58:02;25.80;45.20
37456;DHT22;23316;50.718;7.328;2023-06-10T09:00:31;25.80;45.40
37456;DHT22;23316;50.718;7.328;2023-06-10T09:02:58;25.90;45.20
37456;DHT22;23316;50.718;7.328;2023-06-10T09:05:28;26.00;44.90
37456;DHT22;23316;50.718;7.328;2023-06-10T09:07:57;26.10;44.60
37456;DHT22;23316;50.718;7.328;2023-06-10T09:10:25;26.10;44.40
37456;DHT22;23316;50.718;7.328;2023-06-10T09:12:53;26.20;44.30
37456;DHT22;23316;50.718;7.328;2023-06-10T09:15:21;26.20;44.10
37456;DHT22;23316;50.718;7.328;2023-06-10T09:17:48;26.30;44.10
37456;DHT22;23316;50.718;7.328;2023-06-10T09:20:17;26.30;44.10
37456;DHT22;23316;50.718;7.328;2023-06-10T09:22:45;26.30;44.00
37456;DHT22;23316;50.718;7.328;2023-06-10T09:25:13;26.40;43.80
37456;DHT22;23316;50.718;7.328;2023-06-10T09:27:45;26.50;43.80
37456;DHT22;23316;50.718;7.328;2023-06-10T09:30:25;26.50;43.60
37456;DHT22;23316;50.718;7.328;2023-06-10T09:32:53;26.60;43.60
37456;DHT22;23316;50.718;7.328;2023-06-10T09:35:22;26.60;43.40
37456;DHT22;23316;50.718;7.328;2023-06-10T09:37:52;26.60;43.40
37456;DHT22;23316;50.718;7.328;2023-06-10T09:40:19;26.70;42.90
37456;DHT22;23316;50.718;7.328;2023-06-10T09:42:53;26.80;43.00
37456;DHT22;23316;50.718;7.328;2023-06-10T09:45:21;26.80;42.90
37456;DHT22;23316;50.718;7.328;2023-06-10T09:47:51;26.90;42.70
37456;DHT22;23316;50.718;7.328;2023-06-10T09:50:19;26.90;42.50
37456;DHT22;23316;50.718;7.328;2023-06-10T09:52:47;27.00;42.10
37456;DHT22;23316;50.718;7.328;2023-06-10T09:55:17;27.10;42.20
37456;DHT22;23316;50.718;7.328;2023-06-10T09:57:44;27.10;42.40
37456;DHT22;23316;50.718;7.328;2023-06-10T10:00:15;27.20;42.30
37456;DHT22;23316;50.718;7.328;2023-06-10T10:02:47;27.30;42.00
37456;DHT22;23316;50.718;7.328;2023-06-10T10:05:15;27.30;40.80
37456;DHT22;23316;50.718;7.328;2023-06-10T10:07:44;27.40;41.10
37456;DHT22;23316;50.718;7.328;2023-06-10T10:10:12;27.40;41.00
37456;DHT22;23316;50.718;7.328;2023-06-10T10:12:42;27.50;40.60
37456;DHT22;23316;50.718;7.328;2023-06-10T10:15:11;27.50;39.90
37456;DHT22;23316;50.718;7.328;2023-06-10T10:17:49;27.60;39.60
37456;DHT22;23316;50.718;7.328;2023-06-10T10:20:21;27.60;40.80
37456;DHT22;23316;50.718;7.328;2023-06-10T10:22:50;27.70;40.80
37456;DHT22;23316;50.718;7.328;2023-06-10T10:25:23;27.80;40.50
37456;DHT22;23316;50.718;7.328;2023-06-10T10:27:56;27.80;38.60
37456;DHT22;23316;50.718;7.328;2023-06-10T10:30:24;27.90;39.40
37456;DHT22;23316;50.718;7.328;2023-06-10T10:32:57;28.00;39.60
37456;DHT22;23316;50.718;7.328;2023-06-10T10:35:25;28.00;39.70
37456;DHT22;23316;50.718;7.328;2023-06-10T10:37:54;28.10;40.30
37456;DHT22;23316;50.718;7.328;2023-06-10T10:40:22;28.10;40.50
37456;DHT22;23316;50.718;7.328;2023-06-10T10:42:52;28.10;40.10
37456;DHT22;23316;50.718;7.328;2023-06-10T10:45:21;28.10;39.60
37456;DHT22;23316;50.718;7.328;2023-06-10T10:47:54;28.20;39.30
37456;DHT22;23316;50.718;7.328;2023-06-10T10:50:23;28.20;38.90
37456;DHT22;23316;50.718;7.328;2023-06-10T10:52:56;28.30;39.30
37456;DHT22;23316;50.718;7.328;2023-06-10T10:55:24;28.30;38.00
37456;DHT22;23316;50.718;7.328;2023-06-10T10:57:57;28.30;38.10
37456;DHT22;23316;50.718;7.328;2023-06-10T11:00:28;28.30;38.00
37456;DHT22;23316;50.718;7.328;2023-06-10T11:03:03;28.30;37.40
37456;DHT22;23316;50.718;7.328;2023-06-10T11:05:36;28.30;37.10
37456;DHT22;23316;50.718;7.328;2023-06-10T11:08:05;28.30;36.60
37456;DHT22;23316;50.718;7.328;2023-06-10T11:10:33;28.40;36.70
37456;DHT22;23316;50.718;7.328;2023-06-10T11:13:06;28.40;36.70
37456;DHT22;23316;50.718;7.328;2023-06-10T11:15:38;28.40;36.10
37456;DHT22;23316;50.718;7.328;2023-06-10T11:18:07;28.40;35.90
37456;DHT22;23316;50.718;7.328;2023-06-10T11:20:58;28.40;35.50
37456;DHT22;23316;50.718;7.328;2023-06-10T11:23:39;28.40;35.20
37456;DHT22;23316;50.718;7.328;2023-06-10T11:26:30;28.40;35.00
37456;DHT22;23316;50.718;7.328;2023-06-10T11:29:07;28.40;35.10
37456;DHT22;23316;50.718;7.328;2023-06-10T11:31:49;28.50;35.50
37456;DHT22;23316;50.718;7.328;2023-06-10T11:34:22;28.50;35.00
37456;DHT22;23316;50.718;7.328;2023-06-10T11:36:50;28.50;34.70
37456;DHT22;23316;50.718;7.328;2023-06-10T11:39:19;28.60;35.60
37456;DHT22;23316;50.718;7.328;2023-06-10T11:41:48;28.60;35.00
37456;DHT22;23316;50.718;7.328;2023-06-10T11:44:17;28.70;34.60
37456;DHT22;23316;50.718;7.328;2023-06-10T11:46:44;28.70;34.30
37456;DHT22;23316;50.718;7.328;2023-06-10T11:49:12;28.70;34.50
37456;DHT22;23316;50.718;7.328;2023-06-10T11:51:40;28.70;34.30
37456;DHT22;23316;50.718;7.328;2023-06-10T11:54:15;28.70;33.80
37456;DHT22;23316;50.718;7.328;2023-06-10T11:56:43;28.80;34.50
37456;DHT22;23316;50.718;7.328;2023-06-10T11:59:10;28.80;34.10
37456;DHT22;23316;50.718;7.328;2023-06-10T12:01:43;28.80;33.20
37456;DHT22;23316;50.718;7.328;2023-06-10T12:04:12;28.90;33.00
37456;DHT22;23316;50.718;7.328;2023-06-10T12:06:43;28.90;32.90
37456;DHT22;23316;50.718;7.328;2023-06-10T12:09:18;28.90;32.10
37456;DHT22;23316;50.718;7.328;2023-06-10T12:11:49;28.90;32.70
37456;DHT22;23316;50.718;7.328;2023-06-10T12:14:49;28.90;32.60
37456;DHT22;23316;50.718;7.328;2023-06-10T12:17:19;29.00;32.90
37456;DHT22;23316;50.718;7.328;2023-06-10T12:19:47;29.00;32.90
37456;DHT22;23316;50.718;7.328;2023-06-10T12:22:15;29.00;32.70
37456;DHT22;23316;50.718;7.328;2023-06-10T12:24:45;29.10;32.80
37456;DHT22;23316;50.718;7.328;2023-06-10T12:27:23;29.10;32.60
37456;DHT22;23316;50.718;7.328;2023-06-10T12:29:51;29.10;32.40
37456;DHT22;23316;50.718;7.328;2023-06-10T12:32:22;29.20;32.00
37456;DHT22;23316;50.718;7.328;2023-06-10T12:35:05;29.20;32.40
37456;DHT22;23316;50.718;7.328;2023-06-10T12:37:32;29.20;32.30
37456;DHT22;23316;50.718;7.328;2023-06-10T12:40:00;29.30;32.40
37456;DHT22;23316;50.718;7.328;2023-06-10T12:42:29;29.30;32.20
37456;DHT22;23316;50.718;7.328;2023-06-10T12:44:57;29.40;31.70
37456;DHT22;23316;50.718;7.328;2023-06-10T12:47:31;29.40;31.90
37456;DHT22;23316;50.718;7.328;2023-06-10T12:50:01;29.40;31.60
37456;DHT22;23316;50.718;7.328;2023-06-10T12:52:29;29.40;31.70
37456;DHT22;23316;50.718;7.328;2023-06-10T12:54:57;29.40;31.90
37456;DHT22;23316;50.718;7.328;2023-06-10T12:57:25;29.40;32.10
37456;DHT22;23316;50.718;7.328;2023-06-10T12:59:52;29.50;32.50
37456;DHT22;23316;50.718;7.328;2023-06-10T13:02:19;29.50;32.30
37456;DHT22;23316;50.718;7.328;2023-06-10T13:04:50;29.50;32.10
37456;DHT22;23316;50.718;7.328;2023-06-10T13:07:18;29.60;31.70
37456;DHT22;23316;50.718;7.328;2023-06-10T13:09:45;29.60;31.90
37456;DHT22;23316;50.718;7.328;2023-06-10T13:12:14;29.60;31.80
37456;DHT22;23316;50.718;7.328;2023-06-10T13:14:43;29.60;31.70
37456;DHT22;23316;50.718;7.328;2023-06-10T13:17:10;29.70;32.10
37456;DHT22;23316;50.718;7.328;2023-06-10T13:19:38;29.70;31.90
37456;DHT22;23316;50.718;7.328;2023-06-10T13:22:06;29.70;32.30
37456;DHT22;23316;50.718;7.328;2023-06-10T13:24:34;29.70;32.20
37456;DHT22;23316;50.718;7.328;2023-06-10T13:27:01;29.80;32.60
37456;DHT22;23316;50.718;7.328;2023-06-10T13:29:28;29.80;31.60
37456;DHT22;23316;50.718;7.328;2023-06-10T13:31:56;29.80;31.10
37456;DHT22;23316;50.718;7.328;2023-06-10T13:34:24;29.80;31.30
37456;DHT22;23316;50.718;7.328;2023-06-10T13:36:51;29.80;30.60
37456;DHT22;23316;50.718;7.328;2023-06-10T13:39:19;29.80;30.40
37456;DHT22;23316;50.718;7.328;2023-06-10T13:41:47;29.80;30.70
37456;DHT22;23316;50.718;7.328;2023-06-10T13:44:14;29.80;30.80
37456;DHT22;23316;50.718;7.328;2023-06-10T13:46:41;29.80;30.50
37456;DHT22;23316;50.718;7.328;2023-06-10T13:49:08;29.80;30.60
37456;DHT22;23316;50.718;7.328;2023-06-10T13:51:35;29.80;30.70
37456;DHT22;23316;50.718;7.328;2023-06-10T13:54:03;29.80;31.00
37456;DHT22;23316;50.718;7.328;2023-06-10T13:56:31;29.80;30.50
37456;DHT22;23316;50.718;7.328;2023-06-10T13:59:03;29.80;31.20
37456;DHT22;23316;50.718;7.328;2023-06-10T14:01:31;29.80;30.70
37456;DHT22;23316;50.718;7.328;2023-06-10T14:03:58;29.80;30.70
37456;DHT22;23316;50.718;7.328;2023-06-10T14:06:26;29.80;31.00
37456;DHT22;23316;50.718;7.328;2023-06-10T14:08:53;29.80;31.20
37456;DHT22;23316;50.718;7.328;2023-06-10T14:11:21;29.80;31.10
37456;DHT22;23316;50.718;7.328;2023-06-10T14:13:50;29.90;30.60
37456;DHT22;23316;50.718;7.328;2023-06-10T14:16:17;29.90;30.30
37456;DHT22;23316;50.718;7.328;2023-06-10T14:18:44;29.90;30.30
37456;DHT22;23316;50.718;7.328;2023-06-10T14:21:12;29.90;30.00
37456;DHT22;23316;50.718;7.328;2023-06-10T14:23:39;29.90;30.00
37456;DHT22;23316;50.718;7.328;2023-06-10T14:26:07;29.90;29.40
37456;DHT22;23316;50.718;7.328;2023-06-10T14:28:34;29.90;29.50
37456;DHT22;23316;50.718;7.328;2023-06-10T14:31:03;29.90;29.50
37456;DHT22;23316;50.718;7.328;2023-06-10T14:33:30;30.00;29.70
37456;DHT22;23316;50.718;7.328;2023-06-10T14:35:57;30.00;29.90
37456;DHT22;23316;50.718;7.328;2023-06-10T14:38:25;29.90;29.60
37456;DHT22;23316;50.718;7.328;2023-06-10T14:40:52;30.00;29.60
37456;DHT22;23316;50.718;7.328;2023-06-10T14:43:19;30.00;29.60
37456;DHT22;23316;50.718;7.328;2023-06-10T14:45:46;30.00;29.50
37456;DHT22;23316;50.718;7.328;2023-06-10T14:48:15;30.00;29.30
37456;DHT22;23316;50.718;7.328;2023-06-10T14:50:42;30.00;29.10
37456;DHT22;23316;50.718;7.328;2023-06-10T14:53:11;29.90;29.20
37456;DHT22;23316;50.718;7.328;2023-06-10T14:55:38;30.00;29.20
37456;DHT22;23316;50.718;7.328;2023-06-10T14:58:05;30.00;29.90
37456;DHT22;23316;50.718;7.328;2023-06-10T15:00:32;30.00;29.70
37456;DHT22;23316;50.718;7.328;2023-06-10T15:03:00;30.00;29.70
37456;DHT22;23316;50.718;7.328;2023-06-10T15:05:28;30.00;29.70
37456;DHT22;23316;50.718;7.328;2023-06-10T15:07:56;30.10;29.90
37456;DHT22;23316;50.718;7.328;2023-06-10T15:10:23;30.10;29.80
37456;DHT22;23316;50.718;7.328;2023-06-10T15:12:50;30.10;29.60
37456;DHT22;23316;50.718;7.328;2023-06-10T15:15:21;30.10;29.60
37456;DHT22;23316;50.718;7.328;2023-06-10T15:17:49;30.10;29.80
37456;DHT22;23316;50.718;7.328;2023-06-10T15:20:16;30.10;29.90
37456;DHT22;23316;50.718;7.328;2023-06-10T15:22:45;30.10;29.70
37456;DHT22;23316;50.718;7.328;2023-06-10T15:25:12;30.10;29.70
37456;DHT22;23316;50.718;7.328;2023-06-10T15:27:39;30.10;29.90
37456;DHT22;23316;50.718;7.328;2023-06-10T15:30:07;30.20;29.80
37456;DHT22;23316;50.718;7.328;2023-06-10T15:32:35;30.20;29.90
37456;DHT22;23316;50.718;7.328;2023-06-10T15:35:02;30.20;30.00
37456;DHT22;23316;50.718;7.328;2023-06-10T15:37:29;30.20;30.00
37456;DHT22;23316;50.718;7.328;2023-06-10T15:39:58;30.10;30.00